WetterOnline ( https://www.wetteronline.de )

Wetter aktuell Gelbensande

Aktuelles Wetter: Barth (7m)

6-stündlich | Neueste Meldungen
Ortszeit Temperatur Wetter
Mo, 02.08. 2:00 14.8° C wolkenlos
So, 01.08. 20:00 16.2° C bewölkt
So, 01.08. 14:00 19.7° C wolkig
So, 01.08. 8:00 15.4° C Sprühregen
So, 01.08. 2:00 16.0° C bewölkt
Sa, 31.07. 20:00 17.4° C wolkig
Sa, 31.07. 14:00 18.9° C bewölkt
Sa, 31.07. 8:00 17.2° C leicht bewölkt
Ortszeit Temperatur Wetter
Mo, 02.08. 2:00 14.8° C wolkenlos
Mo, 02.08. 1:50 14.8° C wolkenlos
Mo, 02.08. 1:40 15.0° C wolkenlos
Mo, 02.08. 1:30 15.2° C leicht bewölkt
Mo, 02.08. 1:20 15.2° C leicht bewölkt
Mo, 02.08. 1:10 15.4° C wolkig
Mo, 02.08. 1:00 15.7° C wolkig
Mo, 02.08. 0:30 15.2° C bedeckt
Mo, 02.08. 0:00 14.7° C bedeckt
So, 01.08. 23:30 14.6° C wolkig
So, 01.08. 23:00 14.5° C leicht bewölkt
Ortszeit Relative Feuchte Sichtweite
Mo, 02.08. 2:00 73% >70 km
So, 01.08. 20:00 90% 50 km
So, 01.08. 14:00 64% 40 km
So, 01.08. 8:00 96% 1.7 km
So, 01.08. 2:00 93% 22 km
Sa, 31.07. 20:00 79% 40 km
Sa, 31.07. 14:00 71% 29 km
Sa, 31.07. 8:00 79% 28 km
Ortszeit Relative Feuchte Sichtweite
Mo, 02.08. 2:00 73% >70 km
Mo, 02.08. 1:50 73% -
Mo, 02.08. 1:40 73% -
Mo, 02.08. 1:30 75% 65 km
Mo, 02.08. 1:20 75% -
Mo, 02.08. 1:10 75% -
Mo, 02.08. 1:00 73% >70 km
Mo, 02.08. 0:30 77% 55 km
Mo, 02.08. 0:00 77% 55 km
So, 01.08. 23:30 83% 50 km
So, 01.08. 23:00 84% 55 km
Ortszeit Niederschlagsmenge Niederschlagsart
Mo, 02.08. 2:00 0.1 l/m2 in 6 Std. Regen
So, 01.08. 20:00 7 l/m2 in 12 Std. Regen
So, 01.08. 14:00 7 l/m2 in 6 Std. Regen
So, 01.08. 8:00 7 l/m2 in 12 Std. Regen
So, 01.08. 2:00 2 l/m2 in 6 Std. Regen
Sa, 31.07. 20:00 0.4 l/m2 in 12 Std. Regen
Sa, 31.07. 14:00 0.1 l/m2 in 6 Std. Regen
Sa, 31.07. 8:00 0.1 l/m2 in 12 Std. Regen
Ortszeit Niederschlagsmenge Niederschlagsart
Mo, 02.08. 2:00 0.0 l/m2 in 1 Std. Regen
Mo, 02.08. 1:50 keine Meldung -
Mo, 02.08. 1:40 keine Meldung -
Mo, 02.08. 1:30 0.0 l/m2 in 1 Std. -
Mo, 02.08. 1:20 keine Meldung -
Mo, 02.08. 1:10 keine Meldung -
Mo, 02.08. 1:00 0.0 l/m2 in 1 Std. -
Mo, 02.08. 0:30 0.0 l/m2 in 1 Std. -
Mo, 02.08. 0:00 0.0 l/m2 in 1 Std. -
So, 01.08. 23:30 0.0 l/m2 in 1 Std. -
So, 01.08. 23:00 0.0 l/m2 in 1 Std. Regen
Ortszeit Stärke Spitze Richtung
km/h Bft. km/h Grad Sektor
Mo, 02.08. 2:00 18 3 29 270° W
So, 01.08. 20:00 11 2 32 280° W
So, 01.08. 14:00 18 3 32 270° W
So, 01.08. 8:00 13 3 26 220° SW
So, 01.08. 2:00 15 3 44 230° SW
Sa, 31.07. 20:00 32 5 65 240° SW
Sa, 31.07. 14:00 28 4 46 230° SW
Sa, 31.07. 8:00 20 4 31 230° SW
Ortszeit Stärke Spitze Richtung
km/h Bft. km/h Grad Sektor
Mo, 02.08. 2:00 18 3 29 270° W
Mo, 02.08. 1:50 18 3 - 270° W
Mo, 02.08. 1:40 18 3 - 280° W
Mo, 02.08. 1:30 17 3 26 280° W
Mo, 02.08. 1:20 17 3 - 280° W
Mo, 02.08. 1:10 18 3 - 280° W
Mo, 02.08. 1:00 18 3 29 280° W
Mo, 02.08. 0:30 15 3 22 270° W
Mo, 02.08. 0:00 13 3 22 270° W
So, 01.08. 23:30 11 2 14 270° W
So, 01.08. 23:00 9 2 13 260° W
Ortszeit Untergrenze Bedeckung Gattung
total tief tief mittel hoch
Mo, 02.08. 2:00 - 0/8 0/8 - - -
So, 01.08. 20:00 1380 m 7/8 7/8 - - -
So, 01.08. 14:00 810 m 6/8 6/8 - - -
So, 01.08. 8:00 180 m 8/8 8/8 - - -
So, 01.08. 2:00 450 m 7/8 7/8 - - -
Sa, 31.07. 20:00 750 m 7/8 1/8 - - -
Sa, 31.07. 14:00 1080 m 7/8 7/8 - - -
Sa, 31.07. 8:00 2400 m 4/8 4/8 - - -
Ortszeit Bedeckungsgrad in Achtel und Wolkenuntergrenze
Mo, 02.08. 2:00 keine Wolken
Mo, 02.08. 1:50 keine Wolken
Mo, 02.08. 1:40 keine Wolken
Mo, 02.08. 1:30 1(900m) 4(6600m)
Mo, 02.08. 1:20 1(900m) 2(5400m) 4(6600m)
Mo, 02.08. 1:10 1(930m) 7(6600m) 7(7200m)
Mo, 02.08. 1:00 1(930m) 8(5400m) 8(7200m)
Mo, 02.08. 0:30 3(4500m) 7(5100m) 8(6000m)
Mo, 02.08. 0:00 8(5100m) 8(6300m) 8(6900m)
So, 01.08. 23:30 3(900m) 7(5400m) 7(6300m)
So, 01.08. 23:00 2(840m) 3(1500m) 5(7200m)
Ortszeit Luftdruck NN (hPa) Tendenz (hPa in 3 Std.)
Mo, 02.08. 2:00 1007 0,0
So, 01.08. 20:00 1006 + 0,3
So, 01.08. 14:00 1006 + 0,2
So, 01.08. 8:00 1006 + 0,7
So, 01.08. 2:00 1005 + 0,9
Sa, 31.07. 20:00 1003 + 0,9
Sa, 31.07. 14:00 1003 + 0,2
Sa, 31.07. 8:00 1003 + 0,2
Ortszeit Luftdruck NN (hPa) Tendenz (hPa in 3 Std.)
Mo, 02.08. 2:00 1007 0,0
Mo, 02.08. 1:50 1007 keine Meldung
Mo, 02.08. 1:40 1007 keine Meldung
Mo, 02.08. 1:30 1007 - 0,1
Mo, 02.08. 1:20 1007 keine Meldung
Mo, 02.08. 1:10 1007 keine Meldung
Mo, 02.08. 1:00 1007 - 0,1
Mo, 02.08. 0:30 1007 + 0,1
Mo, 02.08. 0:00 1007 + 0,2
So, 01.08. 23:30 1007 + 0,5
So, 01.08. 23:00 1007 + 0,5
Ortszeit Schneehöhe (cm)
Mo, 02.08. 2:00 -
So, 01.08. 20:00 -
So, 01.08. 14:00 -
So, 01.08. 8:00 -
So, 01.08. 2:00 -
Sa, 31.07. 20:00 -
Sa, 31.07. 14:00 -
Sa, 31.07. 8:00 -
Ortszeit Schneehöhe (cm)
Mo, 02.08. 2:00 -
Mo, 02.08. 1:50 -
Mo, 02.08. 1:40 -
Mo, 02.08. 1:30 -
Mo, 02.08. 1:20 -
Mo, 02.08. 1:10 -
Mo, 02.08. 1:00 -
Mo, 02.08. 0:30 -
Mo, 02.08. 0:00 -
So, 01.08. 23:30 -
So, 01.08. 23:00 -
Link zu dieser Seite / Seite empfehlen

Das Wetter in ...